sensor_id;sensor_type;location;lat;lon;timestamp;pressure;altitude;pressure_sealevel;temperature;humidity
24610;BME280;12758;47.890;11.694;2023-09-18T00:01:47;93563.53;;;21.09;100.00
24610;BME280;12758;47.890;11.694;2023-09-18T00:04:13;93567.09;;;21.06;100.00
24610;BME280;12758;47.890;11.694;2023-09-18T00:06:39;93567.09;;;21.02;100.00
24610;BME280;12758;47.890;11.694;2023-09-18T00:09:05;93558.03;;;21.02;100.00
24610;BME280;12758;47.890;11.694;2023-09-18T00:11:32;93556.03;;;21.06;100.00
24610;BME280;12758;47.890;11.694;2023-09-18T00:13:58;93557.63;;;21.07;100.00
24610;BME280;12758;47.890;11.694;2023-09-18T00:16:24;93558.44;;;21.04;100.00
24610;BME280;12758;47.890;11.694;2023-09-18T00:18:53;93559.59;;;21.10;100.00
24610;BME280;12758;47.890;11.694;2023-09-18T00:21:19;93560.75;;;21.09;100.00
24610;BME280;12758;47.890;11.694;2023-09-18T00:23:45;93558.44;;;21.04;100.00
24610;BME280;12758;47.890;11.694;2023-09-18T00:26:12;93553.72;;;21.01;100.00
24610;BME280;12758;47.890;11.694;2023-09-18T00:28:38;93549.78;;;20.98;100.00
24610;BME280;12758;47.890;11.694;2023-09-18T00:31:04;93542.72;;;20.97;100.00
24610;BME280;12758;47.890;11.694;2023-09-18T00:33:30;93541.13;;;21.00;100.00
24610;BME280;12758;47.890;11.694;2023-09-18T00:35:56;93526.94;;;20.98;100.00
24610;BME280;12758;47.890;11.694;2023-09-18T00:38:22;93522.16;;;21.02;100.00
24610;BME280;12758;47.890;11.694;2023-09-18T00:40:48;93515.09;;;21.01;100.00
24610;BME280;12758;47.890;11.694;2023-09-18T00:43:14;93511.97;;;20.91;100.00
24610;BME280;12758;47.890;11.694;2023-09-18T00:45:42;93511.19;;;20.91;100.00
24610;BME280;12758;47.890;11.694;2023-09-18T00:48:10;93517.88;;;20.97;100.00
24610;BME280;12758;47.890;11.694;2023-09-18T00:50:36;93518.66;;;20.98;100.00
24610;BME280;12758;47.890;11.694;2023-09-18T00:53:03;93522.63;;;20.89;100.00
24610;BME280;12758;47.890;11.694;2023-09-18T00:55:30;93517.09;;;20.89;100.00
24610;BME280;12758;47.890;11.694;2023-09-18T00:57:56;93521.47;;;20.83;100.00
24610;BME280;12758;47.890;11.694;2023-09-18T01:00:22;93511.25;;;20.84;100.00
24610;BME280;12758;47.890;11.694;2023-09-18T01:02:48;93512.81;;;20.81;100.00
24610;BME280;12758;47.890;11.694;2023-09-18T01:05:14;93510.09;;;20.74;100.00
24610;BME280;12758;47.890;11.694;2023-09-18T01:07:42;93511.66;;;20.75;100.00
24610;BME280;12758;47.890;11.694;2023-09-18T01:10:09;93502.63;;;20.71;100.00
24610;BME280;12758;47.890;11.694;2023-09-18T01:12:38;93500.25;;;20.73;100.00
24610;BME280;12758;47.890;11.694;2023-09-18T01:15:10;93498.72;;;20.65;100.00
24610;BME280;12758;47.890;11.694;2023-09-18T01:17:37;93494.34;;;20.71;100.00
24610;BME280;12758;47.890;11.694;2023-09-18T01:20:04;93492.41;;;20.68;100.00
24610;BME280;12758;47.890;11.694;2023-09-18T01:22:32;93487.66;;;20.68;100.00
24610;BME280;12758;47.890;11.694;2023-09-18T01:24:58;93485.28;;;20.67;100.00
24610;BME280;12758;47.890;11.694;2023-09-18T01:27:24;93474.28;;;20.63;100.00
24610;BME280;12758;47.890;11.694;2023-09-18T01:29:50;93462.47;;;20.63;100.00
24610;BME280;12758;47.890;11.694;2023-09-18T01:32:16;93472.34;;;20.57;100.00
24610;BME280;12758;47.890;11.694;2023-09-18T01:34:45;93484.97;;;20.58;100.00
24610;BME280;12758;47.890;11.694;2023-09-18T01:37:12;93490.09;;;20.56;100.00
24610;BME280;12758;47.890;11.694;2023-09-18T01:39:39;93486.16;;;20.53;100.00
24610;BME280;12758;47.890;11.694;2023-09-18T01:42:06;93485.00;;;20.36;100.00
24610;BME280;12758;47.890;11.694;2023-09-18T01:44:32;93486.19;;;20.39;100.00
24610;BME280;12758;47.890;11.694;2023-09-18T01:47:01;93490.16;;;20.31;100.00
24610;BME280;12758;47.890;11.694;2023-09-18T01:49:29;93494.06;;;20.33;100.00
24610;BME280;12758;47.890;11.694;2023-09-18T01:51:55;93476.81;;;20.15;100.00
24610;BME280;12758;47.890;11.694;2023-09-18T01:54:21;93473.66;;;20.20;100.00
24610;BME280;12758;47.890;11.694;2023-09-18T01:56:48;93472.47;;;20.21;100.00
24610;BME280;12758;47.890;11.694;2023-09-18T01:59:14;93461.03;;;20.26;100.00
24610;BME280;12758;47.890;11.694;2023-09-18T02:01:40;93453.94;;;20.25;100.00
24610;BME280;12758;47.890;11.694;2023-09-18T02:04:06;93446.81;;;20.31;100.00
24610;BME280;12758;47.890;11.694;2023-09-18T02:06:32;93438.16;;;20.25;100.00
24610;BME280;12758;47.890;11.694;2023-09-18T02:08:58;93442.19;;;20.10;100.00
24610;BME280;12758;47.890;11.694;2023-09-18T02:11:24;93440.53;;;20.27;100.00
24610;BME280;12758;47.890;11.694;2023-09-18T02:13:50;93446.44;;;20.29;100.00
24610;BME280;12758;47.890;11.694;2023-09-18T02:16:16;93440.91;;;20.33;100.00
24610;BME280;12758;47.890;11.694;2023-09-18T02:18:42;93447.59;;;20.32;100.00
24610;BME280;12758;47.890;11.694;2023-09-18T02:21:09;93447.22;;;20.33;100.00
24610;BME280;12758;47.890;11.694;2023-09-18T02:23:35;93440.94;;;20.29;100.00
24610;BME280;12758;47.890;11.694;2023-09-18T02:26:01;93437.00;;;20.30;100.00
24610;BME280;12758;47.890;11.694;2023-09-18T02:28:27;93427.16;;;20.29;100.00
24610;BME280;12758;47.890;11.694;2023-09-18T02:30:54;93442.09;;;20.32;100.00
24610;BME280;12758;47.890;11.694;2023-09-18T02:33:20;93455.53;;;20.26;100.00
24610;BME280;12758;47.890;11.694;2023-09-18T02:35:46;93456.31;;;20.27;100.00
24610;BME280;12758;47.890;11.694;2023-09-18T02:38:12;93447.66;;;20.21;100.00
24610;BME280;12758;47.890;11.694;2023-09-18T02:40:38;93445.28;;;20.16;100.00
24610;BME280;12758;47.890;11.694;2023-09-18T02:43:04;93440.56;;;20.20;100.00
24610;BME280;12758;47.890;11.694;2023-09-18T02:45:30;93439.78;;;20.19;100.00
24610;BME280;12758;47.890;11.694;2023-09-18T02:47:56;93426.41;;;20.18;100.00
24610;BME280;12758;47.890;11.694;2023-09-18T02:50:22;93419.31;;;20.17;100.00
24610;BME280;12758;47.890;11.694;2023-09-18T02:52:48;93413.78;;;20.20;100.00
24610;BME280;12758;47.890;11.694;2023-09-18T02:55:14;93412.63;;;20.18;100.00
24610;BME280;12758;47.890;11.694;2023-09-18T02:57:40;93406.72;;;20.16;100.00
24610;BME280;12758;47.890;11.694;2023-09-18T03:00:07;93396.47;;;20.20;100.00
24610;BME280;12758;47.890;11.694;2023-09-18T03:02:34;93399.63;;;20.15;100.00
24610;BME280;12758;47.890;11.694;2023-09-18T03:05:02;93401.66;;;20.04;100.00
24610;BME280;12758;47.890;11.694;2023-09-18T03:07:28;93396.53;;;20.13;100.00
24610;BME280;12758;47.890;11.694;2023-09-18T03:09:55;93398.13;;;20.07;100.00
24610;BME280;12758;47.890;11.694;2023-09-18T03:12:21;93389.03;;;20.13;100.00
24610;BME280;12758;47.890;11.694;2023-09-18T03:14:47;93387.84;;;20.11;100.00
24610;BME280;12758;47.890;11.694;2023-09-18T03:17:14;93394.56;;;20.02;100.00
24610;BME280;12758;47.890;11.694;2023-09-18T03:19:39;93390.28;;;19.94;100.00
24610;BME280;12758;47.890;11.694;2023-09-18T03:22:06;93387.50;;;20.01;100.00
24610;BME280;12758;47.890;11.694;2023-09-18T03:24:32;93381.22;;;19.97;100.00
24610;BME280;12758;47.890;11.694;2023-09-18T03:26:58;93385.53;;;19.98;100.00
24610;BME280;12758;47.890;11.694;2023-09-18T03:29:24;93376.09;;;19.92;100.00
24610;BME280;12758;47.890;11.694;2023-09-18T03:31:50;93376.88;;;19.96;100.00
24610;BME280;12758;47.890;11.694;2023-09-18T03:34:16;93383.19;;;19.97;100.00
24610;BME280;12758;47.890;11.694;2023-09-18T03:36:42;93385.13;;;19.96;100.00
24610;BME280;12758;47.890;11.694;2023-09-18T03:39:09;93387.56;;;19.87;100.00
24610;BME280;12758;47.890;11.694;2023-09-18T03:41:35;93377.69;;;19.86;100.00
24610;BME280;12758;47.890;11.694;2023-09-18T03:44:01;93373.78;;;19.87;100.00
24610;BME280;12758;47.890;11.694;2023-09-18T03:46:27;93358.81;;;19.88;100.00
24610;BME280;12758;47.890;11.694;2023-09-18T03:48:53;93357.25;;;19.87;100.00
24610;BME280;12758;47.890;11.694;2023-09-18T03:51:20;93355.25;;;19.91;100.00
24610;BME280;12758;47.890;11.694;2023-09-18T03:53:46;93348.59;;;19.85;100.00
24610;BME280;12758;47.890;11.694;2023-09-18T03:56:14;93343.09;;;19.85;100.00
24610;BME280;12758;47.890;11.694;2023-09-18T03:58:40;93336.00;;;19.81;100.00
24610;BME280;12758;47.890;11.694;2023-09-18T04:01:07;93340.34;;;19.82;100.00
24610;BME280;12758;47.890;11.694;2023-09-18T04:03:33;93339.94;;;19.83;100.00
24610;BME280;12758;47.890;11.694;2023-09-18T04:05:59;93347.81;;;19.85;100.00
24610;BME280;12758;47.890;11.694;2023-09-18T04:08:25;93339.22;;;19.65;100.00
24610;BME280;12758;47.890;11.694;2023-09-18T04:10:51;93346.28;;;19.73;100.00
24610;BME280;12758;47.890;11.694;2023-09-18T04:13:21;93346.28;;;19.73;100.00
24610;BME280;12758;47.890;11.694;2023-09-18T04:15:47;93332.94;;;19.68;100.00
24610;BME280;12758;47.890;11.694;2023-09-18T04:18:13;93325.81;;;19.70;100.00
24610;BME280;12758;47.890;11.694;2023-09-18T04:20:39;93330.53;;;19.70;100.00
24610;BME280;12758;47.890;11.694;2023-09-18T04:23:18;93322.69;;;19.68;100.00
24610;BME280;12758;47.890;11.694;2023-09-18T04:25:45;93314.81;;;19.67;100.00
24610;BME280;12758;47.890;11.694;2023-09-18T04:28:11;93321.91;;;19.68;100.00
24610;BME280;12758;47.890;11.694;2023-09-18T04:30:38;93317.97;;;19.69;100.00
24610;BME280;12758;47.890;11.694;2023-09-18T04:33:04;93321.91;;;19.68;100.00
24610;BME280;12758;47.890;11.694;2023-09-18T04:35:30;93308.53;;;19.66;100.00
24610;BME280;12758;47.890;11.694;2023-09-18T04:37:58;93301.44;;;19.58;100.00
24610;BME280;12758;47.890;11.694;2023-09-18T04:40:24;93307.78;;;19.55;100.00
24610;BME280;12758;47.890;11.694;2023-09-18T04:42:52;93311.31;;;19.52;100.00
24610;BME280;12758;47.890;11.694;2023-09-18T04:45:18;93317.22;;;19.43;100.00
24610;BME280;12758;47.890;11.694;2023-09-18T04:47:44;93309.38;;;19.38;100.00
24610;BME280;12758;47.890;11.694;2023-09-18T04:50:10;93314.09;;;19.34;100.00
24610;BME280;12758;47.890;11.694;2023-09-18T04:52:37;93312.56;;;19.29;100.00
24610;BME280;12758;47.890;11.694;2023-09-18T04:55:04;93311.78;;;19.18;100.00
24610;BME280;12758;47.890;11.694;2023-09-18T04:57:31;93309.44;;;19.09;100.00
24610;BME280;12758;47.890;11.694;2023-09-18T04:59:57;93310.22;;;18.99;100.00
24610;BME280;12758;47.890;11.694;2023-09-18T05:02:23;93314.94;;;19.02;100.00
24610;BME280;12758;47.890;11.694;2023-09-18T05:04:51;93307.91;;;18.94;100.00
24610;BME280;12758;47.890;11.694;2023-09-18T05:07:17;93302.81;;;18.78;100.00
24610;BME280;12758;47.890;11.694;2023-09-18T05:09:43;93299.25;;;18.78;100.00
24610;BME280;12758;47.890;11.694;2023-09-18T05:12:09;93302.41;;;18.76;100.00
24610;BME280;12758;47.890;11.694;2023-09-18T05:14:39;93315.38;;;18.76;100.00
24610;BME280;12758;47.890;11.694;2023-09-18T05:17:05;93314.94;;;18.63;100.00
24610;BME280;12758;47.890;11.694;2023-09-18T05:19:31;93299.22;;;18.67;100.00
24610;BME280;12758;47.890;11.694;2023-09-18T05:21:57;93301.59;;;18.69;100.00
24610;BME280;12758;47.890;11.694;2023-09-18T05:24:23;93292.94;;;18.59;100.00
24610;BME280;12758;47.890;11.694;2023-09-18T05:26:52;93285.09;;;18.40;100.00
24610;BME280;12758;47.890;11.694;2023-09-18T05:29:19;93283.84;;;17.98;100.00
24610;BME280;12758;47.890;11.694;2023-09-18T05:31:45;93295.09;;;17.68;100.00
24610;BME280;12758;47.890;11.694;2023-09-18T05:34:12;93298.34;;;17.95;100.00
24610;BME280;12758;47.890;11.694;2023-09-18T05:36:38;93295.78;;;17.40;100.00
24610;BME280;12758;47.890;11.694;2023-09-18T05:39:05;93289.00;;;17.19;100.00
24610;BME280;12758;47.890;11.694;2023-09-18T05:41:35;93287.16;;;17.49;100.00
24610;BME280;12758;47.890;11.694;2023-09-18T05:44:01;93286.28;;;17.27;100.00
24610;BME280;12758;47.890;11.694;2023-09-18T05:46:29;93286.16;;;17.02;100.00
24610;BME280;12758;47.890;11.694;2023-09-18T05:48:55;93289.00;;;16.64;100.00
24610;BME280;12758;47.890;11.694;2023-09-18T05:51:22;93287.31;;;16.49;100.00
24610;BME280;12758;47.890;11.694;2023-09-18T05:53:49;93283.66;;;16.79;100.00
24610;BME280;12758;47.890;11.694;2023-09-18T05:56:15;93283.94;;;17.25;100.00
24610;BME280;12758;47.890;11.694;2023-09-18T05:58:42;93282.88;;;16.82;100.00
24610;BME280;12758;47.890;11.694;2023-09-18T06:01:08;93292.34;;;16.91;100.00
24610;BME280;12758;47.890;11.694;2023-09-18T06:03:35;93284.75;;;17.33;100.00
24610;BME280;12758;47.890;11.694;2023-09-18T06:06:01;93283.28;;;17.53;100.00
24610;BME280;12758;47.890;11.694;2023-09-18T06:08:27;93288.03;;;17.70;100.00
24610;BME280;12758;47.890;11.694;2023-09-18T06:10:55;93292.81;;;17.81;100.00
24610;BME280;12758;47.890;11.694;2023-09-18T06:13:24;93284.56;;;17.84;100.00
24610;BME280;12758;47.890;11.694;2023-09-18T06:15:50;93295.09;;;17.75;100.00
24610;BME280;12758;47.890;11.694;2023-09-18T06:18:18;93285.66;;;17.65;100.00
24610;BME280;12758;47.890;11.694;2023-09-18T06:20:45;93288.50;;;17.87;100.00
24610;BME280;12758;47.890;11.694;2023-09-18T06:23:11;93284.25;;;18.07;100.00
24610;BME280;12758;47.890;11.694;2023-09-18T06:25:38;93288.19;;;18.13;100.00
24610;BME280;12758;47.890;11.694;2023-09-18T06:28:04;93285.47;;;18.17;100.00
24610;BME280;12758;47.890;11.694;2023-09-18T06:30:31;93289.78;;;18.29;100.00
24610;BME280;12758;47.890;11.694;2023-09-18T06:32:59;93280.34;;;18.23;100.00
24610;BME280;12758;47.890;11.694;2023-09-18T06:35:26;93284.69;;;18.27;100.00
24610;BME280;12758;47.890;11.694;2023-09-18T06:37:52;93280.38;;;18.30;100.00
24610;BME280;12758;47.890;11.694;2023-09-18T06:40:20;93283.50;;;18.32;100.00
24610;BME280;12758;47.890;11.694;2023-09-18T06:42:46;93285.88;;;18.37;100.00
24610;BME280;12758;47.890;11.694;2023-09-18T06:45:12;93285.47;;;18.38;100.00
24610;BME280;12758;47.890;11.694;2023-09-18T06:47:39;93291.38;;;18.44;100.00
24610;BME280;12758;47.890;11.694;2023-09-18T06:50:06;93292.56;;;18.47;100.00
24610;BME280;12758;47.890;11.694;2023-09-18T06:52:32;93308.63;;;18.52;100.00
24610;BME280;12758;47.890;11.694;2023-09-18T06:54:58;93308.66;;;18.59;100.00
24610;BME280;12758;47.890;11.694;2023-09-18T06:57:24;93321.63;;;18.62;100.00
24610;BME280;12758;47.890;11.694;2023-09-18T06:59:50;93325.16;;;18.70;100.00
24610;BME280;12758;47.890;11.694;2023-09-18T07:02:16;93330.69;;;18.73;100.00
24610;BME280;12758;47.890;11.694;2023-09-18T07:04:43;93333.03;;;18.82;100.00
24610;BME280;12758;47.890;11.694;2023-09-18T07:07:11;93333.81;;;18.86;100.00
24610;BME280;12758;47.890;11.694;2023-09-18T07:09:38;93343.66;;;18.94;100.00
24610;BME280;12758;47.890;11.694;2023-09-18T07:12:04;93339.31;;;18.93;100.00
24610;BME280;12758;47.890;11.694;2023-09-18T07:14:30;93335.41;;;18.94;100.00
24610;BME280;12758;47.890;11.694;2023-09-18T07:16:56;93340.88;;;19.01;100.00
24610;BME280;12758;47.890;11.694;2023-09-18T07:19:22;93340.47;;;19.03;100.00
24610;BME280;12758;47.890;11.694;2023-09-18T07:21:49;93340.06;;;19.19;100.00
24610;BME280;12758;47.890;11.694;2023-09-18T07:24:15;93343.22;;;19.21;100.00
24610;BME280;12758;47.890;11.694;2023-09-18T07:26:44;93344.78;;;19.22;100.00
24610;BME280;12758;47.890;11.694;2023-09-18T07:29:11;93347.94;;;19.20;100.00
24610;BME280;12758;47.890;11.694;2023-09-18T07:31:38;93357.31;;;19.66;100.00
24610;BME280;12758;47.890;11.694;2023-09-18T07:34:05;93374.53;;;19.95;100.00
24610;BME280;12758;47.890;11.694;2023-09-18T07:36:31;93381.16;;;20.08;100.00
24610;BME280;12758;47.890;11.694;2023-09-18T07:38:58;93391.00;;;20.13;100.00
24610;BME280;12758;47.890;11.694;2023-09-18T07:41:24;93399.59;;;20.25;100.00
24610;BME280;12758;47.890;11.694;2023-09-18T07:43:50;93387.81;;;20.18;100.00
24610;BME280;12758;47.890;11.694;2023-09-18T07:46:16;93379.56;;;20.14;100.00
24610;BME280;12758;47.890;11.694;2023-09-18T07:48:42;93394.03;;;20.40;100.00
24610;BME280;12758;47.890;11.694;2023-09-18T07:51:10;93386.97;;;20.35;100.00
24610;BME280;12758;47.890;11.694;2023-09-18T07:53:36;93393.19;;;20.54;100.00
24610;BME280;12758;47.890;11.694;2023-09-18T07:56:03;93395.50;;;20.62;100.00
24610;BME280;12758;47.890;11.694;2023-09-18T07:58:30;93407.31;;;20.63;100.00
24610;BME280;12758;47.890;11.694;2023-09-18T08:00:56;93416.81;;;20.55;100.00
24610;BME280;12758;47.890;11.694;2023-09-18T08:03:23;93421.72;;;20.88;100.00
24610;BME280;12758;47.890;11.694;2023-09-18T08:05:49;93427.66;;;20.83;100.00
24610;BME280;12758;47.890;11.694;2023-09-18T08:08:15;93430.34;;;20.98;100.00
24610;BME280;12758;47.890;11.694;2023-09-18T08:10:41;93427.47;;;21.12;100.00
24610;BME280;12758;47.890;11.694;2023-09-18T08:13:08;93427.41;;;21.23;100.00
24610;BME280;12758;47.890;11.694;2023-09-18T08:15:34;93448.75;;;21.15;100.00
24610;BME280;12758;47.890;11.694;2023-09-18T08:18:00;93438.53;;;21.08;100.00
24610;BME280;12758;47.890;11.694;2023-09-18T08:20:26;93444.03;;;21.15;100.00
24610;BME280;12758;47.890;11.694;2023-09-18T08:22:53;93450.75;;;21.11;100.00
24610;BME280;12758;47.890;11.694;2023-09-18T08:25:19;93447.53;;;21.23;100.00
24610;BME280;12758;47.890;11.694;2023-09-18T08:27:45;93449.28;;;20.96;100.00
24610;BME280;12758;47.890;11.694;2023-09-18T08:30:14;93461.56;;;20.87;100.00
24610;BME280;12758;47.890;11.694;2023-09-18T08:32:42;93459.91;;;20.97;100.00
24610;BME280;12758;47.890;11.694;2023-09-18T08:35:08;93456.59;;;21.20;100.00
24610;BME280;12758;47.890;11.694;2023-09-18T08:37:35;93461.38;;;21.16;100.00
24610;BME280;12758;47.890;11.694;2023-09-18T08:40:01;93464.97;;;21.06;100.00
24610;BME280;12758;47.890;11.694;2023-09-18T08:42:36;93477.81;;;21.30;100.00
24610;BME280;12758;47.890;11.694;2023-09-18T08:45:05;93479.38;;;21.31;100.00
24610;BME280;12758;47.890;11.694;2023-09-18T08:47:34;93479.09;;;21.22;100.00
24610;BME280;12758;47.890;11.694;2023-09-18T08:50:00;93481.06;;;21.18;100.00
24610;BME280;12758;47.890;11.694;2023-09-18T08:52:26;93483.44;;;21.20;100.00
24610;BME280;12758;47.890;11.694;2023-09-18T08:54:52;93488.13;;;21.26;100.00
24610;BME280;12758;47.890;11.694;2023-09-18T08:57:19;93491.22;;;21.39;100.00
24610;BME280;12758;47.890;11.694;2023-09-18T08:59:45;93492.84;;;21.29;100.00
24610;BME280;12758;47.890;11.694;2023-09-18T09:02:14;93504.75;;;21.19;100.00
24610;BME280;12758;47.890;11.694;2023-09-18T09:04:40;93511.00;;;21.23;100.00
24610;BME280;12758;47.890;11.694;2023-09-18T09:07:06;93509.81;;;21.24;100.00
24610;BME280;12758;47.890;11.694;2023-09-18T09:09:33;93512.16;;;21.29;100.00
24610;BME280;12758;47.890;11.694;2023-09-18T09:11:59;93507.09;;;21.17;100.00
24610;BME280;12758;47.890;11.694;2023-09-18T09:14:25;93500.03;;;21.16;100.00
24610;BME280;12758;47.890;11.694;2023-09-18T09:16:54;93507.91;;;21.14;100.00
24610;BME280;12758;47.890;11.694;2023-09-18T09:19:28;93498.81;;;21.17;100.00
24610;BME280;12758;47.890;11.694;2023-09-18T09:21:56;93499.56;;;21.25;100.00
24610;BME280;12758;47.890;11.694;2023-09-18T09:24:36;93500.78;;;21.20;100.00
24610;BME280;12758;47.890;11.694;2023-09-18T09:27:03;93503.53;;;21.20;100.00
24610;BME280;12758;47.890;11.694;2023-09-18T09:29:29;93513.31;;;21.28;100.00
24610;BME280;12758;47.890;11.694;2023-09-18T09:31:55;93507.72;;;21.46;100.00
24610;BME280;12758;47.890;11.694;2023-09-18T09:34:25;93506.81;;;21.60;100.00
24610;BME280;12758;47.890;11.694;2023-09-18T09:36:52;93513.19;;;21.53;100.00
24610;BME280;12758;47.890;11.694;2023-09-18T09:39:19;93518.72;;;21.53;100.00
24610;BME280;12758;47.890;11.694;2023-09-18T09:41:50;93518.31;;;21.55;100.00
24610;BME280;12758;47.890;11.694;2023-09-18T09:44:16;93517.09;;;21.59;100.00
24610;BME280;12758;47.890;11.694;2023-09-18T09:46:45;93522.53;;;21.70;100.00
24610;BME280;12758;47.890;11.694;2023-09-18T09:49:11;93522.97;;;21.65;100.00
24610;BME280;12758;47.890;11.694;2023-09-18T09:51:37;93521.03;;;21.62;100.00
24610;BME280;12758;47.890;11.694;2023-09-18T09:54:03;93524.31;;;21.43;100.00
24610;BME280;12758;47.890;11.694;2023-09-18T09:56:44;93528.28;;;21.42;100.00
24610;BME280;12758;47.890;11.694;2023-09-18T09:59:12;93540.44;;;21.51;100.00
24610;BME280;12758;47.890;11.694;2023-09-18T10:01:38;93540.78;;;21.57;100.00
24610;BME280;12758;47.890;11.694;2023-09-18T10:04:08;93536.09;;;21.50;100.00
24610;BME280;12758;47.890;11.694;2023-09-18T10:06:35;93532.19;;;21.44;100.00
24610;BME280;12758;47.890;11.694;2023-09-18T10:09:02;93527.13;;;21.35;100.00
24610;BME280;12758;47.890;11.694;2023-09-18T10:11:28;93525.88;;;21.44;100.00
24610;BME280;12758;47.890;11.694;2023-09-18T10:13:59;93516.47;;;21.30;100.00
24610;BME280;12758;47.890;11.694;2023-09-18T10:16:26;93518.44;;;21.33;100.00
24610;BME280;12758;47.890;11.694;2023-09-18T10:18:57;93524.38;;;21.28;100.00
24610;BME280;12758;47.890;11.694;2023-09-18T10:21:38;93525.97;;;21.29;100.00
24610;BME280;12758;47.890;11.694;2023-09-18T10:24:11;93529.50;;;21.30;100.00
24610;BME280;12758;47.890;11.694;2023-09-18T10:26:43;93538.19;;;21.35;100.00
24610;BME280;12758;47.890;11.694;2023-09-18T10:29:14;93536.19;;;21.32;100.00
24610;BME280;12758;47.890;11.694;2023-09-18T10:31:41;93535.81;;;21.30;100.00
24610;BME280;12758;47.890;11.694;2023-09-18T10:34:09;93536.22;;;21.29;100.00
24610;BME280;12758;47.890;11.694;2023-09-18T10:36:37;93540.13;;;21.31;100.00
24610;BME280;12758;47.890;11.694;2023-09-18T10:39:03;93541.78;;;21.25;100.00
24610;BME280;12758;47.890;11.694;2023-09-18T10:41:33;93541.78;;;21.25;100.00
24610;BME280;12758;47.890;11.694;2023-09-18T10:44:00;93551.97;;;21.28;100.00
24610;BME280;12758;47.890;11.694;2023-09-18T10:46:28;93562.69;;;21.23;100.00
24610;BME280;12758;47.890;11.694;2023-09-18T10:48:54;93561.44;;;21.31;100.00
24610;BME280;12758;47.890;11.694;2023-09-18T10:51:20;93554.38;;;21.26;100.00
24610;BME280;12758;47.890;11.694;2023-09-18T10:53:47;93552.41;;;21.27;100.00
24610;BME280;12758;47.890;11.694;2023-09-18T10:56:14;93557.50;;;21.28;100.00
24610;BME280;12758;47.890;11.694;2023-09-18T10:58:41;93550.47;;;21.20;100.00
24610;BME280;12758;47.890;11.694;2023-09-18T11:01:07;93545.28;;;21.29;100.00
24610;BME280;12758;47.890;11.694;2023-09-18T11:03:39;93552.75;;;21.32;100.00
24610;BME280;12758;47.890;11.694;2023-09-18T11:06:07;93556.69;;;21.31;100.00
24610;BME280;12758;47.890;11.694;2023-09-18T11:08:35;93560.63;;;21.34;100.00
24610;BME280;12758;47.890;11.694;2023-09-18T11:11:09;93562.59;;;21.33;100.00
24610;BME280;12758;47.890;11.694;2023-09-18T11:13:39;93567.34;;;21.40;100.00
24610;BME280;12758;47.890;11.694;2023-09-18T11:16:33;93566.88;;;21.49;100.00
24610;BME280;12758;47.890;11.694;2023-09-18T11:19:08;93560.63;;;21.45;100.00
24610;BME280;12758;47.890;11.694;2023-09-18T11:21:35;93554.31;;;21.33;100.00
24610;BME280;12758;47.890;11.694;2023-09-18T11:24:03;93563.34;;;21.48;100.00
24610;BME280;12758;47.890;11.694;2023-09-18T11:26:30;93566.13;;;21.45;100.00
24610;BME280;12758;47.890;11.694;2023-09-18T11:28:59;93570.06;;;21.44;100.00
24610;BME280;12758;47.890;11.694;2023-09-18T11:31:43;93578.78;;;21.38;100.00
24610;BME280;12758;47.890;11.694;2023-09-18T11:34:20;93578.13;;;21.13;100.00
24610;BME280;12758;47.890;11.694;2023-09-18T11:36:47;93597.47;;;21.02;100.00
24610;BME280;12758;47.890;11.694;2023-09-18T11:39:13;93594.81;;;20.70;100.00
24610;BME280;12758;47.890;11.694;2023-09-18T11:41:39;93608.25;;;20.50;100.00
24610;BME280;12758;47.890;11.694;2023-09-18T11:44:31;93601.16;;;20.60;100.00
24610;BME280;12758;47.890;11.694;2023-09-18T11:46:57;93603.53;;;20.43;100.00
24610;BME280;12758;47.890;11.694;2023-09-18T11:49:26;93616.16;;;20.16;100.00
24610;BME280;12758;47.890;11.694;2023-09-18T11:51:53;93622.88;;;20.15;100.00
24610;BME280;12758;47.890;11.694;2023-09-18T11:54:20;93624.03;;;19.92;100.00
24610;BME280;12758;47.890;11.694;2023-09-18T11:56:47;93630.72;;;20.06;100.00
24610;BME280;12758;47.890;11.694;2023-09-18T11:59:13;93635.09;;;20.07;100.00
24610;BME280;12758;47.890;11.694;2023-09-18T12:01:39;93635.06;;;19.96;100.00
24610;BME280;12758;47.890;11.694;2023-09-18T12:04:05;93635.84;;;19.93;100.00
24610;BME280;12758;47.890;11.694;2023-09-18T12:06:34;93646.06;;;19.71;100.00
24610;BME280;12758;47.890;11.694;2023-09-18T12:09:01;93645.22;;;19.63;100.00
24610;BME280;12758;47.890;11.694;2023-09-18T12:11:27;93642.84;;;19.47;100.00
24610;BME280;12758;47.890;11.694;2023-09-18T12:13:53;93649.13;;;19.44;100.00
24610;BME280;12758;47.890;11.694;2023-09-18T12:16:19;93645.22;;;19.56;100.00
24610;BME280;12758;47.890;11.694;2023-09-18T12:18:45;93654.69;;;19.59;100.00
24610;BME280;12758;47.890;11.694;2023-09-18T12:21:13;93652.16;;;19.11;100.00
24610;BME280;12758;47.890;11.694;2023-09-18T12:23:40;93666.38;;;19.20;100.00
24610;BME280;12758;47.890;11.694;2023-09-18T12:26:08;93670.69;;;19.21;100.00
24610;BME280;12758;47.890;11.694;2023-09-18T12:28:35;93683.66;;;19.17;100.00
24610;BME280;12758;47.890;11.694;2023-09-18T12:31:01;93684.28;;;18.85;100.00
24610;BME280;12758;47.890;11.694;2023-09-18T12:33:33;93687.22;;;18.58;100.00
24610;BME280;12758;47.890;11.694;2023-09-18T12:35:59;93685.00;;;18.75;100.00
24610;BME280;12758;47.890;11.694;2023-09-18T12:38:25;93681.38;;;18.67;100.00
24610;BME280;12758;47.890;11.694;2023-09-18T12:40:54;93681.00;;;18.69;100.00